Catàleg de serveis del Meteocat
Campanya meteocatpedra

Dades de l'estació automàtica Alfarràs

?
?
Resum diari 21:00 TU
Dades diàries de l'estació meteorològica
Temperatura mitjana 24.0 °C
Temperatura màxima 32.4 °C 16:20 TU
Temperatura mínima 17.0 °C 1:28 TU
Humitat relativa mitjana 64%
Precipitació acumulada 0.0 mm
Ratxa màxima del vent (2 m) 18.7 km/h - 306º 15:05 TU

El tram horari està expressat en Temps Universal (TU). Cal sumar una hora en horari d'hivern i dues en horari d'estiu per passar a l'hora oficial.

Alfarràs

Metadades estació meteorol´gica
Municipi Alfarràs
Comarca Segrià
Altitud 268 m
Data alta 17.09.1997
Estat actual Operativa
Dades de període
Període
TU
TM
°C
TX
°C
TN
°C
HRM
%
PPT
mm
VVM (2 m)
km/h
DVM (2 m)
graus
VVX (2 m)
km/h
00:00 - 00:30 17.6 18.1 17.4 93 0.0 0.0 327 2.2
00:30 - 01:00 17.7 18.0 17.5 91 0.0 1.1 328 3.2
01:00 - 01:30 17.4 17.9 17.0 91 0.0 0.4 22 2.2
01:30 - 02:00 17.3 17.8 17.1 92 0.0 0.4 15 2.2
02:00 - 02:30 18.3 18.6 17.8 87 0.0 1.1 341 4.3
02:30 - 03:00 18.7 18.8 18.6 83 0.0 2.2 338 5.8
03:00 - 03:30 19.0 19.1 18.8 83 0.0 1.1 331 4.3
03:30 - 04:00 18.5 18.7 18.3 88 0.0 0.4 20 2.5
04:00 - 04:30 19.0 19.3 18.5 85 0.0 1.8 186 6.8
04:30 - 05:00 18.6 18.9 18.3 85 0.0 0.4 349 4.0
05:00 - 05:30 18.6 19.1 18.1 85 0.0 0.7 32 5.0
05:30 - 06:00 19.0 19.3 18.7 84 0.0 0.7 47 4.7
06:00 - 06:30 20.0 20.4 19.3 77 0.0 1.4 258 6.5
06:30 - 07:00 20.6 21.0 20.3 74 0.0 3.6 245 9.0
07:00 - 07:30 21.2 21.9 20.8 72 0.0 3.2 165 7.9
07:30 - 08:00 22.5 22.9 21.9 68 0.0 3.2 165 9.4
08:00 - 08:30 23.2 23.6 22.4 66 0.0 4.3 181 10.1
08:30 - 09:00 23.7 24.2 23.4 65 0.0 4.3 204 11.9
09:00 - 09:30 24.1 24.8 23.4 64 0.0 4.3 220 10.4
09:30 - 10:00 24.9 25.5 24.3 60 0.0 3.6 242 9.7
10:00 - 10:30 25.7 26.3 25.0 59 0.0 5.4 216 14.0
10:30 - 11:00 26.2 27.1 25.8 57 0.0 4.7 250 14.8
11:00 - 11:30 27.1 27.8 26.2 55 0.0 3.6 262 13.0
11:30 - 12:00 28.0 28.4 27.3 53 0.0 3.6 262 14.4
12:00 - 12:30 28.3 29.2 27.3 52 0.0 2.9 279 14.4
12:30 - 13:00 28.7 29.6 28.0 51 0.0 4.3 277 14.8
13:00 - 13:30 29.6 30.2 28.6 48 0.0 3.6 253 15.5
13:30 - 14:00 30.3 30.9 29.4 42 0.0 2.5 265 15.1
14:00 - 14:30 30.6 31.0 30.2 41 0.0 4.0 240 14.8
14:30 - 15:00 30.9 31.5 30.1 40 0.0 2.2 223 10.1
15:00 - 15:30 31.4 32.1 30.9 37 0.0 2.9 238 18.7
15:30 - 16:00 31.7 32.3 31.2 32 0.0 2.5 238 12.6
16:00 - 16:30 31.9 32.4 31.5 31 0.0 2.2 225 10.4
16:30 - 17:00 31.7 32.1 31.5 29 0.0 3.2 266 12.6
17:00 - 17:30 31.7 32.0 31.5 28 0.0 2.2 251 10.4
17:30 - 18:00 31.5 31.7 30.9 28 0.0 1.4 264 9.0
18:00 - 18:30 30.8 31.2 30.2 30 0.0 0.7 295 6.1
18:30 - 19:00 27.1 30.0 24.8 55 0.0 0.0 344 0.4
19:00 - 19:30 22.8 24.6 21.0 71 0.0 0.0 344 1.1
19:30 - 20:00 20.4 20.9 19.9 78 0.0 0.0 348 1.8
20:00 - 20:30 19.4 19.8 19.1 76 0.0 0.4 358 3.2
20:30 - 21:00 19.6 20.4 18.6 69 0.0 1.4 296 5.4
21:00 - 21:30 18.4 18.9 18.1 76 0.0 0.7 26 3.2
21:30 - 22:00 (s/d) (s/d) (s/d) (s/d) (s/d) (s/d) (s/d) (s/d)

Les dades en taronja només han passat un control de qualitat automàtic. Resta pendent la seva validació definitiva.